Time;durP1;ratioP1;P1;durP2;ratioP2;P2;SDS_P1;SDS_P2;PMS_P1;PMS_P2;Temp;Humidity;BMP_temperature;BMP_pressure;BME280_temperature;BME280_humidity;BME280_pressure;Samples;Min_cycle;Max_cycle;Signal;HPM_P1;HPM_P2
2021/04/02 00:02:19;;;;;;;42.27;29.43;;;15.30;66.50;;;;;;4902146;29;20451;-87
2021/04/02 00:04:45;;;;;;;42.90;30.00;;;15.30;66.70;;;;;;4898126;29;20451;-88
2021/04/02 00:07:11;;;;;;;40.57;28.63;;;15.20;66.90;;;;;;4903735;29;20451;-88
2021/04/02 00:09:38;;;;;;;38.27;28.03;;;15.10;67.10;;;;;;4910592;29;20484;-87
2021/04/02 00:12:06;;;;;;;34.47;29.00;;;15.10;67.50;;;;;;4915760;29;20447;-88
2021/04/02 00:14:33;;;;;;;41.80;29.87;;;15.00;67.80;;;;;;4902732;29;20455;-88
2021/04/02 00:16:59;;;;;;;41.63;31.00;;;15.00;68.80;;;;;;4911238;29;20803;-88
2021/04/02 00:19:25;;;;;;;43.00;31.93;;;14.90;68.20;;;;;;4917097;29;20489;-87
2021/04/02 00:21:51;;;;;;;38.80;29.40;;;15.00;68.60;;;;;;4917200;29;20953;-88
2021/04/02 00:24:18;;;;;;;41.57;27.17;;;15.00;68.40;;;;;;4916947;29;20451;-88
2021/04/02 00:26:44;;;;;;;40.73;28.73;;;14.80;68.50;;;;;;4919072;29;20458;-89
2021/04/02 00:29:11;;;;;;;39.43;27.90;;;14.70;69.20;;;;;;4924878;29;20445;-88
2021/04/02 00:31:38;;;;;;;39.03;27.90;;;14.60;69.60;;;;;;4932607;29;20462;-88
2021/04/02 00:34:06;;;;;;;42.23;29.20;;;14.40;70.00;;;;;;4942989;28;20447;-89
2021/04/02 00:36:33;;;;;;;41.50;31.20;;;14.40;70.40;;;;;;4927424;28;20452;-88
2021/04/02 00:39:00;;;;;;;40.10;31.47;;;14.40;70.80;;;;;;4928755;29;20497;-88
2021/04/02 00:41:26;;;;;;;39.83;33.27;;;14.30;71.20;;;;;;4921489;29;20569;-88
2021/04/02 00:43:52;;;;;;;45.30;31.73;;;14.20;71.60;;;;;;4928155;29;20446;-88
2021/04/02 00:46:21;;;;;;;46.27;33.87;;;14.20;71.90;;;;;;4929084;29;20549;-87
2021/04/02 00:48:49;;;;;;;43.60;31.23;;;14.20;72.00;;;;;;4907861;29;20515;-88
2021/04/02 00:51:20;;;;;;;50.57;34.00;;;14.30;72.20;;;;;;4907182;29;20461;-88
2021/04/02 00:53:46;;;;;;;48.27;36.57;;;14.30;72.30;;;;;;4901943;29;20432;-87
2021/04/02 00:56:14;;;;;;;44.47;32.60;;;14.30;72.20;;;;;;4906237;29;20463;-87
2021/04/02 00:58:41;;;;;;;41.03;32.10;;;14.40;72.00;;;;;;4919937;29;20553;-88
2021/04/02 01:01:08;;;;;;;41.90;33.50;;;14.30;71.70;;;;;;4936382;29;20478;-88
2021/04/02 01:03:36;;;;;;;39.67;32.50;;;14.30;71.70;;;;;;4922758;29;20522;-87
2021/04/02 01:06:04;;;;;;;47.10;31.60;;;14.30;71.80;;;;;;4927831;29;20486;-86
2021/04/02 01:08:33;;;;;;;40.40;30.50;;;14.20;71.90;;;;;;4942845;28;20435;-86
2021/04/02 01:11:02;;;;;;;45.13;29.63;;;14.20;71.80;;;;;;4926393;29;21006;-87
2021/04/02 01:13:35;;;;;;;39.93;29.23;;;14.20;71.80;;;;;;4914544;29;20465;-86
2021/04/02 01:16:04;;;;;;;32.93;25.80;;;14.10;71.70;;;;;;4921851;29;20444;-86
2021/04/02 01:18:34;;;;;;;38.90;26.77;;;14.00;71.80;;;;;;4921711;29;20483;-86
2021/04/02 01:21:09;;;;;;;32.30;24.87;;;14.00;72.10;;;;;;4920926;29;20486;-87
2021/04/02 01:23:44;;;;;;;32.77;24.00;;;13.90;71.80;;;;;;4927848;29;20483;-86
2021/04/02 01:26:20;;;;;;;33.87;25.70;;;13.80;71.90;;;;;;4925786;29;20454;-87
2021/04/02 01:28:58;;;;;;;31.60;23.10;;;13.70;72.10;;;;;;4920682;29;21211;-87
2021/04/02 01:31:25;;;;;;;30.53;24.13;;;13.70;73.10;;;;;;4921119;29;20526;-87
2021/04/02 01:33:54;;;;;;;34.70;24.07;;;13.70;72.40;;;;;;4907911;29;20524;-86
2021/04/02 01:36:21;;;;;;;31.93;24.40;;;13.60;72.40;;;;;;4917119;29;20970;-87
2021/04/02 01:38:49;;;;;;;29.73;22.93;;;13.60;72.60;;;;;;4919954;29;20498;-87
2021/04/02 01:41:16;;;;;;;27.13;20.80;;;13.60;72.50;;;;;;4918130;29;20497;-86
2021/04/02 01:43:45;;;;;;;31.67;23.23;;;13.70;72.80;;;;;;4913569;29;20456;-87
2021/04/02 01:46:14;;;;;;;33.10;25.67;;;13.50;72.80;;;;;;4920143;29;20449;-87
2021/04/02 01:48:44;;;;;;;28.77;22.20;;;13.50;73.20;;;;;;4901062;29;20449;-86
2021/04/02 01:51:12;;;;;;;29.17;21.23;;;13.40;73.20;;;;;;4911627;29;20524;-86
2021/04/02 01:53:41;;;;;;;24.93;20.77;;;13.40;73.30;;;;;;4919002;29;20458;-86
2021/04/02 01:56:08;;;;;;;27.50;20.20;;;13.30;73.60;;;;;;4918233;29;20462;-87
2021/04/02 01:58:40;;;;;;;26.50;21.97;;;13.40;73.50;;;;;;4918302;29;20553;-86
2021/04/02 02:01:07;;;;;;;28.80;20.70;;;13.30;73.40;;;;;;4920427;29;20472;-87
2021/04/02 02:03:36;;;;;;;26.33;20.27;;;13.20;73.70;;;;;;4920750;29;20486;-87
2021/04/02 02:06:04;;;;;;;28.07;20.40;;;13.20;74.00;;;;;;4918714;29;20455;-87
2021/04/02 02:08:31;;;;;;;25.97;20.17;;;13.20;74.10;;;;;;4936153;29;20435;-86
2021/04/02 02:11:02;;;;;;;24.30;19.47;;;13.20;74.20;;;;;;4917345;28;20463;-87
2021/04/02 02:13:30;;;;;;;27.50;20.67;;;13.10;74.40;;;;;;4922527;29;20436;-86
2021/04/02 02:15:58;;;;;;;22.00;19.30;;;13.00;74.70;;;;;;4904876;29;20515;-86
2021/04/02 02:18:26;;;;;;;20.63;17.70;;;13.00;75.00;;;;;;4899605;29;20444;-86
2021/04/02 02:20:55;;;;;;;23.03;16.53;;;12.90;75.10;;;;;;4899826;29;21213;-87
2021/04/02 02:23:21;;;;;;;20.40;16.63;;;12.90;75.00;;;;;;4899226;29;20880;-87
2021/04/02 02:25:47;;;;;;;25.60;16.17;;;12.90;75.10;;;;;;4900812;29;20827;-88
2021/04/02 02:28:15;;;;;;;25.27;17.03;;;12.90;75.00;;;;;;4914763;29;20459;-87
2021/04/02 02:30:43;;;;;;;21.10;15.80;;;12.90;75.00;;;;;;4924661;29;20553;-86
2021/04/02 02:33:10;;;;;;;19.00;16.07;;;12.80;75.10;;;;;;4928834;28;20433;-86
2021/04/02 02:35:36;;;;;;;21.50;16.43;;;12.80;75.10;;;;;;4933740;29;21000;-87
2021/04/02 02:38:04;;;;;;;20.30;14.13;;;12.80;75.20;;;;;;4908808;29;20462;-86
2021/04/02 02:40:35;;;;;;;19.77;15.07;;;12.80;75.20;;;;;;4899503;29;20500;-87
2021/04/02 02:43:01;;;;;;;18.03;14.17;;;12.80;75.10;;;;;;4901702;29;21002;-86
2021/04/02 02:45:29;;;;;;;20.60;15.27;;;12.70;75.00;;;;;;4912330;29;20455;-86
2021/04/02 02:47:55;;;;;;;26.07;15.13;;;12.70;75.50;;;;;;4921980;29;20451;-87
2021/04/02 02:50:25;;;;;;;19.30;14.17;;;12.60;75.60;;;;;;4920139;29;20480;-87
2021/04/02 02:52:53;;;;;;;18.17;15.60;;;12.50;75.70;;;;;;4919265;29;20556;-87
2021/04/02 02:55:24;;;;;;;18.77;13.30;;;12.50;76.00;;;;;;4918619;29;20482;-87
2021/04/02 02:57:56;;;;;;;23.00;12.13;;;12.50;76.20;;;;;;4907145;29;20454;-87
2021/04/02 03:00:25;;;;;;;13.33;11.87;;;12.50;76.20;;;;;;4937333;29;20482;-86
2021/04/02 03:02:54;;;;;;;14.30;12.17;;;12.60;76.00;;;;;;4933177;28;20448;-87
2021/04/02 03:05:23;;;;;;;14.20;10.63;;;12.50;75.40;;;;;;4939431;29;20443;-87
2021/04/02 03:07:53;;;;;;;12.03;10.30;;;12.40;75.70;;;;;;4930972;29;20469;-87
2021/04/02 03:10:21;;;;;;;12.00;10.70;;;12.40;76.40;;;;;;4916843;29;20474;-87
2021/04/02 03:12:49;;;;;;;15.90;11.00;;;12.30;75.60;;;;;;4915040;29;20466;-87
2021/04/02 03:15:19;;;;;;;13.37;10.90;;;12.30;76.10;;;;;;4916445;29;20461;-85
2021/04/02 03:17:50;;;;;;;14.90;10.60;;;12.20;76.20;;;;;;4915404;29;20566;-86
2021/04/02 03:20:18;;;;;;;12.37;9.63;;;12.20;76.20;;;;;;4916424;29;20495;-86
2021/04/02 03:22:45;;;;;;;11.53;9.70;;;12.20;76.50;;;;;;4913688;29;20954;-85
2021/04/02 03:25:14;;;;;;;11.07;10.03;;;12.20;76.60;;;;;;4897304;29;20467;-86
2021/04/02 03:27:42;;;;;;;11.43;10.23;;;12.10;76.50;;;;;;4897404;29;20459;-86
2021/04/02 03:30:11;;;;;;;12.97;10.10;;;12.10;77.00;;;;;;4903478;29;20475;-85
2021/04/02 03:32:39;;;;;;;14.47;10.93;;;12.00;76.90;;;;;;4915337;29;20466;-86
2021/04/02 03:35:08;;;;;;;11.60;9.87;;;12.00;77.00;;;;;;4923145;29;20506;-86
2021/04/02 03:37:36;;;;;;;11.83;10.00;;;11.90;77.20;;;;;;4920715;29;20446;-86
2021/04/02 03:40:07;;;;;;;11.33;9.20;;;11.90;77.10;;;;;;4937145;28;20501;-86
2021/04/02 03:42:35;;;;;;;12.17;8.47;;;11.90;76.30;;;;;;4938938;28;20483;-85
2021/04/02 03:45:04;;;;;;;9.37;8.27;;;11.80;75.60;;;;;;4939123;28;20492;-86
2021/04/02 03:47:31;;;;;;;12.30;9.37;;;11.70;75.40;;;;;;4918060;29;20466;-86
2021/04/02 03:50:02;;;;;;;10.33;9.17;;;11.70;75.60;;;;;;4922511;29;20530;-86
2021/04/02 03:52:31;;;;;;;9.77;8.00;;;11.60;75.40;;;;;;4929619;29;20461;-86
2021/04/02 03:55:00;;;;;;;9.50;6.57;;;11.60;74.70;;;;;;4922160;29;20549;-85
2021/04/02 03:57:28;;;;;;;10.77;7.00;;;11.60;73.60;;;;;;4916931;29;20450;-85
2021/04/02 03:59:57;;;;;;;9.10;6.70;;;11.50;73.00;;;;;;4918009;29;20494;-86
2021/04/02 04:02:25;;;;;;;8.83;5.70;;;11.50;72.30;;;;;;4926419;29;20454;-86
2021/04/02 04:04:53;;;;;;;6.33;5.73;;;11.40;71.70;;;;;;4903597;29;20455;-84
2021/04/02 04:07:22;;;;;;;8.20;5.17;;;11.40;71.70;;;;;;4929035;29;20442;-86
2021/04/02 04:09:50;;;;;;;6.53;4.80;;;11.30;71.20;;;;;;4936793;29;20477;-86
2021/04/02 04:12:19;;;;;;;8.20;5.10;;;11.20;70.50;;;;;;4927369;29;20447;-86
2021/04/02 04:14:47;;;;;;;6.80;5.10;;;11.20;70.10;;;;;;4923470;29;20460;-86
2021/04/02 04:17:15;;;;;;;7.40;4.67;;;11.10;69.80;;;;;;4914553;29;20461;-86
2021/04/02 04:19:45;;;;;;;7.33;4.70;;;11.10;69.80;;;;;;4901800;29;21036;-86
2021/04/02 04:22:15;;;;;;;6.60;5.00;;;11.00;69.30;;;;;;4902702;29;20557;-86
2021/04/02 04:24:45;;;;;;;6.13;4.47;;;11.00;69.20;;;;;;4917007;29;20462;-86
2021/04/02 04:27:13;;;;;;;4.90;4.10;;;10.90;68.50;;;;;;4919462;29;20462;-85
2021/04/02 04:29:42;;;;;;;8.77;4.43;;;10.90;68.30;;;;;;4925627;29;20447;-86
2021/04/02 04:32:14;;;;;;;5.30;4.67;;;10.80;68.60;;;;;;4928317;29;20447;-86
2021/04/02 04:34:42;;;;;;;4.33;3.80;;;10.70;68.70;;;;;;4926310;29;20454;-86
2021/04/02 04:37:08;;;;;;;7.87;4.60;;;10.70;68.80;;;;;;4921098;29;20439;-87
2021/04/02 04:39:36;;;;;;;4.30;3.63;;;10.60;68.60;;;;;;4921066;29;20494;-86
2021/04/02 04:42:04;;;;;;;8.13;3.33;;;10.60;68.10;;;;;;4922874;29;20470;-87
2021/04/02 04:44:30;;;;;;;5.20;3.60;;;10.60;67.90;;;;;;4906835;29;20477;-87
2021/04/02 04:46:56;;;;;;;5.87;4.20;;;10.50;68.00;;;;;;4900998;29;20467;-87
2021/04/02 04:49:23;;;;;;;4.53;3.90;;;10.40;68.50;;;;;;4900364;29;20500;-86
2021/04/02 04:51:51;;;;;;;4.43;3.63;;;10.30;68.60;;;;;;4901072;29;20455;-86
2021/04/02 04:54:21;;;;;;;6.80;4.60;;;10.30;68.50;;;;;;4914260;29;20469;-86
2021/04/02 04:56:49;;;;;;;7.30;3.33;;;10.30;68.60;;;;;;4935246;29;20466;-87
2021/04/02 04:59:16;;;;;;;4.67;4.17;;;10.20;69.70;;;;;;4924787;29;20523;-86
2021/04/02 05:01:45;;;;;;;7.13;3.83;;;10.20;68.90;;;;;;4933203;29;20446;-87
2021/04/02 05:04:13;;;;;;;5.10;4.60;;;10.20;69.30;;;;;;4941562;29;20482;-86
2021/04/02 05:06:41;;;;;;;6.40;3.70;;;10.20;69.30;;;;;;4920350;29;20455;-86
2021/04/02 05:09:10;;;;;;;6.63;4.60;;;10.10;69.70;;;;;;4920733;29;20452;-86
2021/04/02 05:11:38;;;;;;;5.63;3.60;;;10.10;69.80;;;;;;4923501;29;20474;-86
2021/04/02 05:14:07;;;;;;;5.30;4.07;;;10.10;70.00;;;;;;4915359;29;20456;-86
2021/04/02 05:16:34;;;;;;;5.20;3.73;;;10.00;70.00;;;;;;4902103;29;20537;-86
2021/04/02 05:19:01;;;;;;;5.60;4.20;;;10.00;69.90;;;;;;4901319;29;20900;-87
2021/04/02 05:21:28;;;;;;;6.03;3.80;;;10.00;69.80;;;;;;4918288;29;20475;-87
2021/04/02 05:23:54;;;;;;;6.20;4.00;;;10.00;69.90;;;;;;4924556;29;20461;-87
2021/04/02 05:26:22;;;;;;;4.70;3.57;;;10.00;69.90;;;;;;4934871;29;20442;-87
2021/04/02 05:28:49;;;;;;;6.07;4.10;;;10.00;69.80;;;;;;4939986;28;20593;-86
2021/04/02 05:31:15;;;;;;;4.47;4.07;;;10.00;70.00;;;;;;4918857;29;20467;-87
2021/04/02 05:33:41;;;;;;;6.17;4.33;;;9.90;71.00;;;;;;4908200;29;20479;-89
2021/04/02 05:36:08;;;;;;;5.97;3.83;;;10.00;69.70;;;;;;4902612;29;20499;-87
2021/04/02 05:38:34;;;;;;;5.70;4.20;;;10.10;69.50;;;;;;4902889;29;20463;-87
2021/04/02 05:41:05;;;;;;;6.60;4.23;;;10.10;69.20;;;;;;4931316;29;20481;-86
2021/04/02 05:43:37;;;;;;;8.03;4.47;;;10.00;69.10;;;;;;4934684;29;20484;-88
2021/04/02 05:46:04;;;;;;;7.07;4.10;;;10.00;69.00;;;;;;4934928;29;20450;-85
2021/04/02 05:48:32;;;;;;;7.60;4.13;;;10.10;69.00;;;;;;4925286;29;20454;-87
2021/04/02 05:50:59;;;;;;;4.57;4.17;;;10.00;69.20;;;;;;4910663;29;20467;-87
2021/04/02 05:53:26;;;;;;;4.50;4.10;;;10.00;69.10;;;;;;4902911;29;20451;-86
2021/04/02 05:55:54;;;;;;;5.00;4.20;;;10.00;69.20;;;;;;4903038;29;20452;-86
2021/04/02 05:58:21;;;;;;;13.40;4.63;;;10.00;69.10;;;;;;4903982;29;20455;-87
2021/04/02 06:00:51;;;;;;;5.20;4.57;;;10.00;69.20;;;;;;4912059;29;20875;-85
2021/04/02 06:03:18;;;;;;;6.33;4.20;;;10.00;69.10;;;;;;4925555;29;20435;-86
2021/04/02 06:05:44;;;;;;;4.53;4.13;;;10.00;69.30;;;;;;4920065;29;20465;-87
2021/04/02 06:08:11;;;;;;;6.53;4.90;;;10.20;69.10;;;;;;4922525;29;20443;-86
2021/04/02 06:10:38;;;;;;;8.50;4.37;;;10.30;68.80;;;;;;4911921;29;20478;-87
2021/04/02 06:13:16;;;;;;;8.67;4.97;;;10.40;68.50;;;;;;4944809;23;20501;-85
2021/04/02 06:16:05;;;;;;;5.87;5.33;;;10.60;67.90;;;;;;4978957;28;20500;-85
2021/04/02 06:26:01;;;;;;;6.60;5.30;;;10.90;66.40;;;;;;4885647;29;20881;-85
2021/04/02 06:29:15;;;;;;;6.20;5.57;;;10.90;66.40;;;;;;4889649;29;20444;-85
2021/04/02 06:35:03;;;;;;;8.60;5.90;;;10.90;66.30;;;;;;4936095;29;20475;-85
2021/04/02 06:44:29;;;;;;;6.80;5.70;;;11.10;65.60;;;;;;4922475;29;20496;-85
2021/04/02 06:50:20;;;;;;;9.10;6.30;;;10.90;66.10;;;;;;4936195;23;20504;-88
2021/04/02 06:52:49;;;;;;;8.77;6.27;;;10.90;65.90;;;;;;4956608;29;20515;-87
2021/04/02 06:55:15;;;;;;;7.40;6.20;;;10.90;66.10;;;;;;4965195;29;20429;-86
2021/04/02 06:57:46;;;;;;;7.50;6.77;;;10.90;66.20;;;;;;4956594;29;20890;-87
2021/04/02 07:00:18;;;;;;;9.40;6.60;;;10.90;66.20;;;;;;4946233;29;20474;-87
2021/04/02 07:02:46;;;;;;;8.90;6.97;;;10.80;66.30;;;;;;4938176;29;20450;-87
2021/04/02 07:05:16;;;;;;;8.80;7.00;;;10.90;66.40;;;;;;4940590;29;20449;-87
2021/04/02 07:07:44;;;;;;;7.90;7.10;;;11.00;66.10;;;;;;4949545;29;20519;-87
2021/04/02 07:10:12;;;;;;;9.23;7.20;;;11.00;65.80;;;;;;4944402;29;20495;-87
2021/04/02 07:12:43;;;;;;;7.30;6.30;;;11.00;65.90;;;;;;4946338;29;20446;-87
2021/04/02 07:15:10;;;;;;;7.23;6.10;;;11.10;65.80;;;;;;4954079;29;20571;-87
2021/04/02 07:17:38;;;;;;;9.30;6.90;;;11.10;65.70;;;;;;4941550;29;20438;-86
2021/04/02 07:20:06;;;;;;;9.47;7.80;;;11.20;65.60;;;;;;4940511;29;20478;-88
2021/04/02 07:22:33;;;;;;;8.67;7.97;;;11.30;65.60;;;;;;4940564;29;20537;-88
2021/04/02 07:25:00;;;;;;;9.13;7.40;;;12.20;65.20;;;;;;4935401;29;20464;-88
2021/04/02 07:27:26;;;;;;;10.03;7.80;;;13.40;61.30;;;;;;4944598;29;20446;-87
2021/04/02 07:29:53;;;;;;;8.43;7.10;;;14.30;58.80;;;;;;4939179;29;21062;-87
2021/04/02 07:32:21;;;;;;;8.07;7.27;;;14.60;57.20;;;;;;4940115;29;20463;-87
2021/04/02 07:34:48;;;;;;;8.80;7.97;;;15.40;55.80;;;;;;4942429;29;20451;-87
2021/04/02 07:37:17;;;;;;;9.27;8.37;;;16.40;54.30;;;;;;4944329;29;20456;-87
2021/04/02 07:39:46;;;;;;;8.67;7.60;;;16.50;52.60;;;;;;4935091;29;20506;-88
2021/04/02 07:42:13;;;;;;;8.60;7.90;;;16.50;52.60;;;;;;4936201;29;20455;-88
2021/04/02 07:44:44;;;;;;;7.93;7.17;;;17.00;51.90;;;;;;4933855;29;20461;-87
2021/04/02 07:47:12;;;;;;;9.17;8.33;;;17.60;50.60;;;;;;4944975;29;20548;-87
2021/04/02 07:49:57;;;;;;;8.80;7.70;;;18.30;49.50;;;;;;4941562;29;20576;-86
2021/04/02 07:52:39;;;;;;;10.13;9.13;;;18.50;48.60;;;;;;4951929;29;20517;-88
2021/04/02 07:55:10;;;;;;;9.90;9.00;;;18.60;47.90;;;;;;4958872;29;20453;-88
2021/04/02 07:58:00;;;;;;;8.80;8.00;;;18.60;47.70;;;;;;4948388;29;20507;-87
2021/04/02 08:00:37;;;;;;;9.50;7.70;;;19.40;47.30;;;;;;4943711;29;20473;-87
2021/04/02 08:03:50;;;;;;;9.33;8.53;;;19.70;46.30;;;;;;4949079;29;20758;-86
2021/04/02 08:06:49;;;;;;;10.00;9.07;;;20.30;45.50;;;;;;4893765;29;20452;-87
2021/04/02 08:12:21;;;;;;;9.27;8.57;;;20.10;44.70;;;;;;4939500;29;20434;-88
2021/04/02 08:14:49;;;;;;;10.67;9.57;;;19.50;45.40;;;;;;4926755;29;20446;-87
2021/04/02 08:17:27;;;;;;;9.80;8.90;;;19.30;45.80;;;;;;4929260;29;20545;-86
2021/04/02 08:20:01;;;;;;;9.83;8.87;;;19.30;46.30;;;;;;4938079;29;20474;-87
2021/04/02 08:22:28;;;;;;;10.90;9.83;;;19.60;45.70;;;;;;4939996;29;20443;-87
2021/04/02 08:24:55;;;;;;;10.47;9.47;;;19.70;45.90;;;;;;4933068;29;20443;-87
2021/04/02 08:27:21;;;;;;;9.30;8.43;;;19.90;45.60;;;;;;4924832;29;20490;-87
2021/04/02 08:30:01;;;;;;;9.57;8.87;;;20.30;45.20;;;;;;4927437;29;20975;-86
2021/04/02 08:32:37;;;;;;;9.00;8.20;;;20.30;44.80;;;;;;4928586;29;20455;-87
2021/04/02 08:35:07;;;;;;;10.57;9.57;;;20.50;44.40;;;;;;4940608;29;20869;-86
2021/04/02 08:37:43;;;;;;;9.90;9.00;;;21.30;43.80;;;;;;4941666;29;20525;-87
2021/04/02 08:40:37;;;;;;;10.53;9.57;;;22.20;42.70;;;;;;4944106;29;20475;-87
2021/04/02 08:43:07;;;;;;;10.40;9.50;;;23.50;40.80;;;;;;4940673;29;20462;-87
2021/04/02 08:45:34;;;;;;;9.37;8.50;;;24.50;39.30;;;;;;4933378;29;20426;-86
2021/04/02 08:48:01;;;;;;;10.63;9.63;;;25.20;38.80;;;;;;4932634;29;20447;-86
2021/04/02 08:50:28;;;;;;;10.40;9.50;;;25.50;37.30;;;;;;4937915;29;20498;-86
2021/04/02 08:53:04;;;;;;;10.27;9.47;;;25.80;37.00;;;;;;4942022;29;20460;-87
2021/04/02 08:55:31;;;;;;;11.03;10.03;;;26.70;35.90;;;;;;4948470;29;20433;-86
2021/04/02 08:57:58;;;;;;;9.63;8.73;;;27.60;34.50;;;;;;4961604;28;20448;-87
2021/04/02 09:00:25;;;;;;;10.27;9.47;;;27.40;34.00;;;;;;4947373;29;20838;-87
2021/04/02 09:02:53;;;;;;;11.53;9.57;;;27.30;34.10;;;;;;4948634;29;20458;-88
2021/04/02 09:05:20;;;;;;;10.43;9.43;;;27.00;33.90;;;;;;4957556;29;20457;-88
2021/04/02 09:10:30;;;;;;;10.43;9.50;;;28.10;33.60;;;;;;4946443;29;20469;-85
2021/04/02 09:12:57;;;;;;;11.47;10.27;;;28.30;32.30;;;;;;4954883;29;21157;-85
2021/04/02 09:15:27;;;;;;;10.30;9.50;;;27.70;32.90;;;;;;4964078;29;20480;-87
2021/04/02 09:17:53;;;;;;;9.93;9.23;;;27.70;33.10;;;;;;4950109;29;20828;-86
2021/04/02 09:20:20;;;;;;;10.93;9.93;;;28.50;32.80;;;;;;4948966;28;20465;-87
2021/04/02 09:22:47;;;;;;;9.80;9.03;;;29.00;31.90;;;;;;4958777;29;20571;-86
2021/04/02 09:25:15;;;;;;;10.33;9.53;;;29.00;31.50;;;;;;4973903;29;20432;-86
2021/04/02 09:27:42;;;;;;;11.43;10.50;;;29.20;31.10;;;;;;4978033;28;20432;-86
2021/04/02 09:30:09;;;;;;;10.70;9.90;;;26.60;32.40;;;;;;4953238;29;20493;-85
2021/04/02 09:32:37;;;;;;;11.37;10.17;;;25.20;35.50;;;;;;4953904;29;20466;-87
2021/04/02 09:35:05;;;;;;;11.93;10.83;;;24.10;36.60;;;;;;4946164;29;20490;-85
2021/04/02 09:37:34;;;;;;;10.80;9.80;;;23.90;38.20;;;;;;4947096;29;20478;-85
2021/04/02 09:40:03;;;;;;;10.63;9.77;;;24.90;37.50;;;;;;4959482;29;20551;-85
2021/04/02 09:42:32;;;;;;;10.97;9.70;;;26.30;35.50;;;;;;4954937;29;20455;-86
2021/04/02 09:45:05;;;;;;;11.50;10.50;;;26.30;34.70;;;;;;4959855;29;20455;-87
2021/04/02 09:47:39;;;;;;;11.50;10.50;;;25.10;35.60;;;;;;4954515;29;20449;-84
2021/04/02 09:50:08;;;;;;;11.53;10.53;;;23.80;38.10;;;;;;4950091;29;20480;-86
2021/04/02 09:52:35;;;;;;;11.93;10.90;;;23.00;37.80;;;;;;4952707;29;20448;-85
2021/04/02 09:55:01;;;;;;;12.13;10.93;;;23.20;38.00;;;;;;4965362;29;20510;-84
2021/04/02 09:57:28;;;;;;;11.77;10.67;;;23.40;37.50;;;;;;4964883;28;20433;-85
2021/04/02 09:59:54;;;;;;;11.00;10.10;;;22.50;38.40;;;;;;4968960;28;20826;-84
2021/04/02 10:02:23;;;;;;;10.10;9.30;;;23.90;37.60;;;;;;4966234;28;20446;-84
2021/04/02 10:05:08;;;;;;;10.83;10.03;;;24.20;36.30;;;;;;4968867;29;20437;-87
2021/04/02 10:11:03;;;;;;;10.20;9.40;;;23.20;37.10;;;;;;4942292;29;20564;-87
2021/04/02 10:14:00;;;;;;;10.03;9.23;;;22.50;38.50;;;;;;4963626;28;20462;-86
2021/04/02 10:16:49;;;;;;;;;;;;;;;;;;;;;
2021/04/02 10:19:17;;;;;;;11.80;10.60;;;21.70;39.30;;;;;;4960598;29;20455;-83
2021/04/02 10:21:44;;;;;;;11.77;10.33;;;21.30;40.80;;;;;;4964257;29;20522;-85
2021/04/02 10:24:11;;;;;;;12.50;11.30;;;22.50;39.90;;;;;;4967750;29;20414;-84
2021/04/02 10:26:37;;;;;;;12.63;11.60;;;23.00;38.20;;;;;;4963122;28;20463;-85
2021/04/02 10:29:04;;;;;;;12.60;11.50;;;22.50;38.20;;;;;;4961675;28;20459;-86
2021/04/02 10:31:31;;;;;;;11.73;10.73;;;22.30;38.80;;;;;;4963452;29;20440;-84
2021/04/02 10:34:06;;;;;;;11.10;10.17;;;22.00;39.70;;;;;;4988124;23;20526;-86
2021/04/02 10:36:34;;;;;;;11.60;10.60;;;23.20;39.50;;;;;;4932241;29;20466;-85
2021/04/02 10:39:00;;;;;;;10.83;10.03;;;25.50;36.50;;;;;;4937252;29;20441;-86
2021/04/02 10:41:27;;;;;;;10.77;9.97;;;27.50;33.70;;;;;;4942090;29;20453;-86
2021/04/02 10:44:11;;;;;;;11.70;10.70;;;27.30;32.50;;;;;;4946336;29;20435;-84
2021/04/02 10:46:55;;;;;;;11.80;10.83;;;28.50;32.10;;;;;;4934101;29;20450;-84
2021/04/02 10:49:29;;;;;;;11.83;10.90;;;29.60;30.40;;;;;;4932052;29;20454;-82
2021/04/02 10:52:08;;;;;;;11.67;10.67;;;28.60;30.00;;;;;;4934635;29;20445;-85
2021/04/02 10:54:35;;;;;;;10.70;9.90;;;26.20;32.30;;;;;;4937579;29;20954;-83
2021/04/02 10:57:07;;;;;;;11.20;10.40;;;25.00;33.90;;;;;;4941446;29;20442;-83
2021/04/02 10:59:34;;;;;;;12.63;11.37;;;25.60;34.30;;;;;;4937992;29;20924;-83
2021/04/02 11:02:01;;;;;;;11.47;10.47;;;27.30;32.20;;;;;;4937062;29;20484;-83
2021/04/02 11:04:47;;;;;;;10.90;9.90;;;28.60;30.40;;;;;;4942384;29;20468;-83
2021/04/02 11:10:29;;;;;;;10.73;9.73;;;29.60;29.60;;;;;;4932213;29;21149;-83
2021/04/02 11:13:10;;;;;;;10.50;9.70;;;30.20;28.90;;;;;;4931206;29;20553;-83
2021/04/02 11:15:37;;;;;;;11.17;10.37;;;31.30;27.90;;;;;;4929963;29;20470;-85
2021/04/02 11:18:10;;;;;;;10.90;10.03;;;30.70;27.50;;;;;;4929488;29;20474;-84
2021/04/02 11:20:41;;;;;;;9.80;9.00;;;30.10;27.40;;;;;;4928189;29;20506;-85
2021/04/02 11:23:18;;;;;;;9.53;8.83;;;30.50;27.40;;;;;;4933256;29;20869;-83
2021/04/02 11:25:54;;;;;;;;;;;;;;;;;;;;;
2021/04/02 11:28:35;;;;;;;9.53;8.93;;;31.60;26.50;;;;;;4921543;29;20551;-84
2021/04/02 11:31:06;;;;;;;9.20;8.60;;;32.20;25.70;;;;;;4934977;29;20476;-84
2021/04/02 11:33:36;;;;;;;9.10;8.40;;;32.30;25.40;;;;;;4931851;29;20475;-83
2021/04/02 11:36:03;;;;;;;8.50;8.00;;;32.10;25.80;;;;;;4939398;29;20465;-84
2021/04/02 11:38:37;;;;;;;9.27;8.60;;;31.70;25.90;;;;;;4935396;29;20462;-84
2021/04/02 11:41:12;;;;;;;8.23;7.63;;;31.60;26.20;;;;;;4932674;29;20482;-84
2021/04/02 11:43:50;;;;;;;7.33;6.83;;;31.80;25.50;;;;;;4931833;29;20477;-85
2021/04/02 11:46:20;;;;;;;8.53;7.83;;;31.50;25.30;;;;;;4922111;29;20462;-84
2021/04/02 11:48:54;;;;;;;7.87;7.27;;;31.10;25.50;;;;;;4925157;29;20919;-85
2021/04/02 11:51:25;;;;;;;8.40;7.90;;;31.80;25.60;;;;;;4921081;29;20489;-85
2021/04/02 11:53:57;;;;;;;7.70;7.20;;;32.50;25.50;;;;;;4922370;29;20467;-85
2021/04/02 11:56:33;;;;;;;7.03;6.60;;;32.70;24.90;;;;;;4925691;29;20455;-85
2021/04/02 11:59:12;;;;;;;8.10;6.87;;;32.70;24.70;;;;;;4922230;29;20966;-85
2021/04/02 12:01:41;;;;;;;7.20;6.70;;;32.90;24.70;;;;;;4917739;29;20450;-84
2021/04/02 12:04:10;;;;;;;7.73;7.23;;;32.30;25.00;;;;;;4928806;29;20853;-85
2021/04/02 12:06:40;;;;;;;7.00;6.50;;;32.20;25.00;;;;;;4926058;29;20833;-83
2021/04/02 12:09:09;;;;;;;7.90;7.30;;;32.70;25.20;;;;;;4927061;29;20451;-84
2021/04/02 12:11:39;;;;;;;8.50;7.90;;;32.80;24.40;;;;;;4926461;29;20474;-84
2021/04/02 12:14:16;;;;;;;6.43;5.93;;;31.00;24.90;;;;;;4920107;29;20476;-84
2021/04/02 12:16:56;;;;;;;7.13;6.63;;;29.50;26.50;;;;;;4923116;29;20462;-84
2021/04/02 12:19:39;;;;;;;7.23;6.67;;;29.30;27.10;;;;;;4924261;29;20435;-85
2021/04/02 12:22:11;;;;;;;7.13;6.53;;;29.40;26.80;;;;;;4927237;29;20486;-85
2021/04/02 12:24:41;;;;;;;7.23;6.53;;;29.40;26.90;;;;;;4931140;29;20474;-84
2021/04/02 12:29:39;;;;;;;7.23;6.73;;;31.00;25.50;;;;;;4942000;29;20478;-86
2021/04/02 12:32:06;;;;;;;7.17;6.67;;;31.30;25.30;;;;;;4947337;29;20455;-84
2021/04/02 12:34:39;;;;;;;7.80;7.20;;;31.50;25.80;;;;;;4960104;29;20457;-85
2021/04/02 12:37:06;;;;;;;6.93;6.43;;;32.30;25.00;;;;;;4955183;28;20461;-84
2021/04/02 12:39:36;;;;;;;6.50;6.10;;;31.70;24.90;;;;;;4948455;29;20475;-85
2021/04/02 12:42:04;;;;;;;7.23;6.63;;;32.10;24.70;;;;;;4955813;28;20465;-86
2021/04/02 12:44:30;;;;;;;6.17;5.77;;;32.20;24.60;;;;;;4961524;28;20456;-83
2021/04/02 12:47:05;;;;;;;6.30;5.90;;;32.50;24.70;;;;;;4948161;28;20442;-85
2021/04/02 12:49:31;;;;;;;6.53;6.03;;;32.90;24.00;;;;;;4943124;28;20469;-84
2021/04/02 12:51:57;;;;;;;5.80;5.40;;;33.30;23.50;;;;;;4943257;28;20439;-83
2021/04/02 12:54:27;;;;;;;5.90;5.40;;;33.20;23.30;;;;;;4937133;28;20475;-85
2021/04/02 12:56:53;;;;;;;6.33;5.93;;;33.10;23.20;;;;;;4934227;29;20458;-84
2021/04/02 12:59:20;;;;;;;6.40;5.90;;;33.00;23.70;;;;;;4942912;28;20450;-84
2021/04/02 13:01:46;;;;;;;7.13;5.93;;;32.50;23.70;;;;;;4961844;28;20444;-85
2021/04/02 13:04:13;;;;;;;6.50;6.00;;;32.00;23.90;;;;;;4960783;28;20485;-83
2021/04/02 13:06:39;;;;;;;6.17;5.77;;;31.60;24.00;;;;;;4954988;28;20445;-84
2021/04/02 13:09:05;;;;;;;6.37;5.90;;;31.90;24.20;;;;;;4939221;29;20515;-83
2021/04/02 13:11:32;;;;;;;6.10;5.70;;;31.80;24.20;;;;;;4951344;29;20496;-83
2021/04/02 13:13:58;;;;;;;6.00;5.60;;;31.30;24.10;;;;;;4941698;29;20537;-84
2021/04/02 13:16:25;;;;;;;5.43;5.03;;;31.80;24.20;;;;;;4948158;29;20455;-84
2021/04/02 13:18:55;;;;;;;5.83;5.43;;;31.70;24.00;;;;;;4941623;29;20480;-86
2021/04/02 13:21:21;;;;;;;5.10;4.70;;;31.40;24.10;;;;;;4948151;29;20442;-84
2021/04/02 13:23:47;;;;;;;5.43;5.07;;;30.50;24.30;;;;;;4947634;29;20428;-83
2021/04/02 13:26:13;;;;;;;7.07;6.57;;;31.00;24.90;;;;;;4954093;29;20743;-84
2021/04/02 13:28:39;;;;;;;7.70;6.20;;;29.60;24.80;;;;;;4946410;29;21086;-84
2021/04/02 13:31:10;;;;;;;5.37;4.97;;;29.40;26.00;;;;;;4953301;29;20487;-83